createdAt,value
2022-10-26T00:00:37.653Z,1010.08
2022-10-26T00:01:37.743Z,1010.10
2022-10-26T00:02:37.680Z,1010.11
2022-10-26T00:03:37.577Z,1010.08
2022-10-26T00:04:37.549Z,1010.05
2022-10-26T00:05:37.533Z,1010.04
2022-10-26T00:06:37.503Z,1010.07
2022-10-26T00:07:37.525Z,1010.05
2022-10-26T00:08:37.460Z,1010.02
2022-10-26T00:09:37.456Z,1010.03
2022-10-26T00:10:37.412Z,1009.98
2022-10-26T00:11:37.389Z,1010.02
2022-10-26T00:12:37.364Z,1010.01
2022-10-26T00:13:37.338Z,1009.97
2022-10-26T00:14:37.325Z,1010.00
2022-10-26T00:15:37.295Z,1009.90
2022-10-26T00:16:37.267Z,1009.91
2022-10-26T00:17:37.250Z,1009.94
2022-10-26T00:18:37.220Z,1009.94
2022-10-26T00:19:37.202Z,1009.92
2022-10-26T00:20:37.178Z,1009.93
2022-10-26T00:21:37.157Z,1009.98
2022-10-26T00:22:37.126Z,1009.95
2022-10-26T00:23:37.101Z,1009.99
2022-10-26T00:24:37.075Z,1009.96
2022-10-26T00:25:37.077Z,1009.94
2022-10-26T00:26:37.033Z,1009.96
2022-10-26T00:27:37.013Z,1009.93
2022-10-26T00:28:36.985Z,1009.92
2022-10-26T00:29:36.964Z,1009.94
2022-10-26T00:30:36.933Z,1009.93
2022-10-26T00:31:36.910Z,1009.96
2022-10-26T00:32:36.942Z,1009.95
2022-10-26T00:33:36.864Z,1009.96
2022-10-26T00:34:36.845Z,1009.92
2022-10-26T00:35:45.566Z,1009.93
2022-10-26T00:36:36.794Z,1009.95
2022-10-26T00:37:36.771Z,1009.92
2022-10-26T00:38:36.745Z,1009.94
2022-10-26T00:39:36.726Z,1009.90
2022-10-26T00:40:36.700Z,1009.91
2022-10-26T00:41:36.696Z,1009.87
2022-10-26T00:42:36.653Z,1009.86
2022-10-26T00:43:36.627Z,1009.88
2022-10-26T00:44:36.936Z,1009.86
2022-10-26T00:45:36.585Z,1009.90
2022-10-26T00:46:36.558Z,1009.91
2022-10-26T00:47:36.537Z,1009.90
2022-10-26T00:48:36.512Z,1009.89
2022-10-26T00:49:36.488Z,1009.90
2022-10-26T00:50:36.464Z,1009.89
2022-10-26T00:51:36.436Z,1009.89
2022-10-26T00:52:36.415Z,1009.89
2022-10-26T00:53:36.389Z,1009.89
2022-10-26T00:54:36.367Z,1009.91
2022-10-26T00:55:36.342Z,1009.86
2022-10-26T00:56:36.322Z,1009.87
2022-10-26T00:58:36.274Z,1009.86
2022-10-26T00:59:36.247Z,1009.85
2022-10-26T01:00:36.223Z,1009.85
2022-10-26T01:01:36.298Z,1009.83
2022-10-26T01:02:36.175Z,1009.79
2022-10-26T01:03:36.266Z,1009.79
2022-10-26T01:04:36.134Z,1009.78
2022-10-26T01:05:36.106Z,1009.74
2022-10-26T01:06:36.079Z,1009.77
2022-10-26T01:07:36.063Z,1009.75
2022-10-26T01:08:36.034Z,1009.75
2022-10-26T01:09:36.013Z,1009.75
2022-10-26T01:10:35.993Z,1009.74
2022-10-26T01:11:35.966Z,1009.73
2022-10-26T01:12:35.941Z,1009.70
2022-10-26T01:13:35.976Z,1009.73
2022-10-26T01:14:35.896Z,1009.70
2022-10-26T01:15:35.869Z,1009.69
2022-10-26T01:16:38.399Z,1009.70
2022-10-26T01:17:35.824Z,1009.63
2022-10-26T01:18:35.800Z,1009.65
2022-10-26T01:19:35.772Z,1009.64
2022-10-26T01:20:35.746Z,1009.64
2022-10-26T01:21:35.727Z,1009.63
2022-10-26T01:22:35.705Z,1009.63
2022-10-26T01:23:35.678Z,1009.62
2022-10-26T01:24:35.655Z,1009.59
2022-10-26T01:25:35.632Z,1009.58
2022-10-26T01:26:35.607Z,1009.66
2022-10-26T01:27:35.588Z,1009.59
2022-10-26T01:28:35.563Z,1009.64
2022-10-26T01:29:35.561Z,1009.60
2022-10-26T01:30:35.516Z,1009.60
2022-10-26T01:31:35.494Z,1009.61
2022-10-26T01:32:35.469Z,1009.60
2022-10-26T01:33:35.444Z,1009.57
2022-10-26T01:34:35.418Z,1009.58
2022-10-26T01:35:35.394Z,1009.59
2022-10-26T01:36:35.395Z,1009.56
2022-10-26T01:37:35.354Z,1009.57
2022-10-26T01:38:35.329Z,1009.55
2022-10-26T01:39:35.299Z,1009.50
2022-10-26T01:40:35.277Z,1009.52
2022-10-26T01:41:35.261Z,1009.53
2022-10-26T01:42:35.235Z,1009.46
2022-10-26T01:43:35.207Z,1009.49
2022-10-26T01:44:35.187Z,1009.49
2022-10-26T01:45:35.183Z,1009.46
2022-10-26T01:46:35.137Z,1009.47
2022-10-26T01:47:35.118Z,1009.45
2022-10-26T01:48:35.089Z,1009.45
2022-10-26T01:49:35.074Z,1009.44
2022-10-26T01:50:35.042Z,1009.45
2022-10-26T01:51:35.028Z,1009.44
2022-10-26T01:52:34.997Z,1009.42
2022-10-26T01:53:34.970Z,1009.38
2022-10-26T01:54:34.949Z,1009.36
2022-10-26T01:55:34.952Z,1009.33
2022-10-26T01:56:34.910Z,1009.33
2022-10-26T01:57:34.882Z,1009.34
2022-10-26T01:58:34.857Z,1009.28
2022-10-26T01:59:34.832Z,1009.34
2022-10-26T02:00:34.825Z,1009.31
2022-10-26T02:01:34.876Z,1009.31
2022-10-26T02:02:34.759Z,1009.31
2022-10-26T02:03:34.797Z,1009.30
2022-10-26T02:04:34.710Z,1009.30
2022-10-26T02:05:34.691Z,1009.28
2022-10-26T02:06:34.667Z,1009.27
2022-10-26T02:07:34.645Z,1009.26
2022-10-26T02:08:34.618Z,1009.21
2022-10-26T02:09:34.599Z,1009.22
2022-10-26T02:10:34.571Z,1009.23
2022-10-26T02:11:34.547Z,1009.17
2022-10-26T02:12:34.527Z,1009.15
2022-10-26T02:13:34.505Z,1009.14
2022-10-26T02:14:34.480Z,1009.16
2022-10-26T02:15:34.455Z,1009.14
2022-10-26T02:16:34.429Z,1009.09
2022-10-26T02:17:34.428Z,1009.12
2022-10-26T02:18:34.387Z,1009.09
2022-10-26T02:19:34.360Z,1009.09
2022-10-26T02:20:34.336Z,1009.09
2022-10-26T02:21:34.315Z,1009.09
2022-10-26T02:22:34.291Z,1009.09
2022-10-26T02:23:34.264Z,1009.07
2022-10-26T02:24:34.245Z,1009.05
2022-10-26T02:25:34.228Z,1009.04
2022-10-26T02:26:34.195Z,1009.08
2022-10-26T02:27:34.174Z,1009.06
2022-10-26T02:28:34.148Z,1009.13
2022-10-26T02:29:34.135Z,1009.05
2022-10-26T02:30:34.101Z,1009.06
2022-10-26T02:31:34.081Z,1009.05
2022-10-26T02:32:34.058Z,1009.05
2022-10-26T02:33:34.056Z,1009.05
2022-10-26T02:34:34.008Z,1009.07
2022-10-26T02:35:33.987Z,1009.03
2022-10-26T02:36:33.960Z,1009.03
2022-10-26T02:37:33.940Z,1009.02
2022-10-26T02:38:33.914Z,1008.99
2022-10-26T02:39:33.894Z,1009.00
2022-10-26T02:40:33.865Z,1008.96
2022-10-26T02:41:33.840Z,1008.94
2022-10-26T02:42:33.824Z,1008.92
2022-10-26T02:43:33.797Z,1008.93
2022-10-26T02:44:33.775Z,1008.91
2022-10-26T02:45:33.750Z,1008.88
2022-10-26T02:46:33.724Z,1008.87
2022-10-26T02:47:33.704Z,1008.84
2022-10-26T02:48:33.679Z,1008.86
2022-10-26T02:49:33.676Z,1008.85
2022-10-26T02:50:33.631Z,1008.84
2022-10-26T02:51:33.616Z,1008.85
2022-10-26T02:52:33.583Z,1008.83
2022-10-26T02:53:33.560Z,1008.82
2022-10-26T02:54:33.538Z,1008.85
2022-10-26T02:55:33.524Z,1008.86
2022-10-26T02:56:33.493Z,1008.87
2022-10-26T02:57:33.471Z,1008.87
2022-10-26T02:58:33.445Z,1008.87
2022-10-26T02:59:33.421Z,1008.83
2022-10-26T03:00:33.399Z,1008.83
2022-10-26T03:01:33.501Z,1008.82
2022-10-26T03:02:33.350Z,1008.81
2022-10-26T03:03:33.324Z,1008.83
2022-10-26T03:04:33.299Z,1008.81
2022-10-26T03:05:33.298Z,1008.79
2022-10-26T03:06:33.254Z,1008.84
2022-10-26T03:07:33.234Z,1008.82
2022-10-26T03:08:33.207Z,1008.82
2022-10-26T03:09:33.188Z,1008.83
2022-10-26T03:10:33.162Z,1008.79
2022-10-26T03:11:33.138Z,1008.77
2022-10-26T03:12:33.120Z,1008.75
2022-10-26T03:13:33.091Z,1008.72
2022-10-26T03:14:33.070Z,1008.71
2022-10-26T03:15:33.049Z,1008.74
2022-10-26T03:16:33.022Z,1008.70
2022-10-26T03:17:32.999Z,1008.73
2022-10-26T03:18:32.977Z,1008.75
2022-10-26T03:19:32.951Z,1008.74
2022-10-26T03:20:32.925Z,1008.76
2022-10-26T03:21:32.923Z,1008.79
2022-10-26T03:22:32.878Z,1008.78
2022-10-26T03:23:32.853Z,1008.79
2022-10-26T03:24:32.834Z,1008.78
2022-10-26T03:25:32.814Z,1008.76
2022-10-26T03:26:32.782Z,1008.81
2022-10-26T03:27:32.764Z,1008.80
2022-10-26T03:28:32.736Z,1008.79
2022-10-26T03:29:32.719Z,1008.81
2022-10-26T03:30:32.694Z,1008.79
2022-10-26T03:31:32.668Z,1008.76
2022-10-26T03:32:32.652Z,1008.76
2022-10-26T03:33:32.646Z,1008.75
2022-10-26T03:34:32.599Z,1008.72
2022-10-26T03:35:32.573Z,1008.71
2022-10-26T03:36:32.549Z,1008.73
2022-10-26T03:37:32.547Z,1008.69
2022-10-26T03:38:32.503Z,1008.70
2022-10-26T03:39:32.487Z,1008.73
2022-10-26T03:40:32.455Z,1008.69
2022-10-26T03:41:32.438Z,1008.70
2022-10-26T03:42:32.411Z,1008.66
2022-10-26T03:43:32.385Z,1008.69
2022-10-26T03:44:32.365Z,1008.66
2022-10-26T03:45:32.338Z,1008.69
2022-10-26T03:46:32.315Z,1008.63
2022-10-26T03:47:32.288Z,1008.65
2022-10-26T03:48:32.274Z,1008.65
2022-10-26T03:49:32.245Z,1008.63
2022-10-26T03:50:32.222Z,1008.63
2022-10-26T03:51:32.204Z,1008.65
2022-10-26T03:52:32.172Z,1008.63
2022-10-26T03:53:32.173Z,1008.67
2022-10-26T03:54:32.126Z,1008.68
2022-10-26T03:55:32.114Z,1008.65
2022-10-26T03:56:32.080Z,1008.64
2022-10-26T03:57:32.055Z,1008.66
2022-10-26T03:58:32.040Z,1008.70
2022-10-26T03:59:32.010Z,1008.67
2022-10-26T04:00:31.991Z,1008.68
2022-10-26T04:01:32.072Z,1008.72
2022-10-26T04:02:31.947Z,1008.70
2022-10-26T04:03:31.916Z,1008.66
2022-10-26T04:04:31.945Z,1008.67
2022-10-26T04:05:31.872Z,1008.68
2022-10-26T04:06:31.843Z,1008.67
2022-10-26T04:07:31.822Z,1008.63
2022-10-26T04:08:31.797Z,1008.66
2022-10-26T04:09:31.802Z,1008.62
2022-10-26T04:10:31.751Z,1008.58
2022-10-26T04:11:31.729Z,1008.60
2022-10-26T04:12:31.704Z,1008.63
2022-10-26T04:13:31.679Z,1008.60
2022-10-26T04:14:31.656Z,1008.61
2022-10-26T04:15:31.636Z,1008.60
2022-10-26T04:16:33.455Z,1008.64
2022-10-26T04:17:31.592Z,1008.67
2022-10-26T04:18:31.564Z,1008.63
2022-10-26T04:19:31.542Z,1008.64
2022-10-26T04:20:31.527Z,1008.64
2022-10-26T04:21:31.498Z,1008.65
2022-10-26T04:22:31.471Z,1008.63
2022-10-26T04:23:31.448Z,1008.61
2022-10-26T04:24:31.426Z,1008.62
2022-10-26T04:25:33.085Z,1008.65
2022-10-26T04:26:31.382Z,1008.66
2022-10-26T04:27:31.352Z,1008.58
2022-10-26T04:28:31.331Z,1008.57
2022-10-26T04:29:31.311Z,1008.56
2022-10-26T04:30:31.282Z,1008.57
2022-10-26T04:31:31.329Z,1008.55
2022-10-26T04:32:31.239Z,1008.55
2022-10-26T04:33:31.217Z,1008.55
2022-10-26T04:34:31.187Z,1008.55
2022-10-26T04:35:31.165Z,1008.57
2022-10-26T04:36:31.141Z,1008.55
2022-10-26T04:37:31.117Z,1008.56
2022-10-26T04:38:31.099Z,1008.58
2022-10-26T04:39:31.071Z,1008.57
2022-10-26T04:40:31.054Z,1008.55
2022-10-26T04:41:31.049Z,1008.54
2022-10-26T04:42:31.001Z,1008.53
2022-10-26T04:43:30.980Z,1008.55
2022-10-26T04:44:30.958Z,1008.54
2022-10-26T04:45:31.208Z,1008.55
2022-10-26T04:46:30.908Z,1008.53
2022-10-26T04:47:30.887Z,1008.54
2022-10-26T04:48:30.875Z,1008.49
2022-10-26T04:49:30.834Z,1008.52
2022-10-26T04:50:30.810Z,1008.53
2022-10-26T04:51:30.788Z,1008.51
2022-10-26T04:52:30.766Z,1008.55
2022-10-26T04:53:30.739Z,1008.57
2022-10-26T04:54:30.718Z,1008.54
2022-10-26T04:55:30.694Z,1008.56
2022-10-26T04:56:30.679Z,1008.55
2022-10-26T04:57:30.668Z,1008.55
2022-10-26T04:58:30.629Z,1008.58
2022-10-26T04:59:30.598Z,1008.53
2022-10-26T05:00:30.577Z,1008.57
2022-10-26T05:01:30.702Z,1008.56
2022-10-26T05:02:30.651Z,1008.54
2022-10-26T05:03:30.511Z,1008.58
2022-10-26T05:04:30.484Z,1008.58
2022-10-26T05:05:30.459Z,1008.57
2022-10-26T05:06:30.437Z,1008.59
2022-10-26T05:07:30.410Z,1008.61
2022-10-26T05:08:30.388Z,1008.57
2022-10-26T05:09:30.365Z,1008.62
2022-10-26T05:10:30.346Z,1008.60
2022-10-26T05:11:30.314Z,1008.60
2022-10-26T05:12:30.291Z,1008.57
2022-10-26T05:13:30.330Z,1008.60
2022-10-26T05:14:30.245Z,1008.55
2022-10-26T05:15:30.225Z,1008.58
2022-10-26T05:16:30.205Z,1008.59
2022-10-26T05:17:30.182Z,1008.61
2022-10-26T05:18:30.162Z,1008.57
2022-10-26T05:19:30.133Z,1008.58
2022-10-26T05:20:30.113Z,1008.58
2022-10-26T05:21:30.085Z,1008.57
2022-10-26T05:22:30.062Z,1008.58
2022-10-26T05:23:30.038Z,1008.57
2022-10-26T05:24:30.022Z,1008.59
2022-10-26T05:25:29.993Z,1008.61
2022-10-26T05:26:29.965Z,1008.62
2022-10-26T05:27:29.944Z,1008.59
2022-10-26T05:28:29.918Z,1008.62
2022-10-26T05:29:29.916Z,1008.60
2022-10-26T05:30:29.875Z,1008.65
2022-10-26T05:31:29.848Z,1008.58
2022-10-26T05:32:29.823Z,1008.60
2022-10-26T05:33:29.797Z,1008.61
2022-10-26T05:34:29.774Z,1008.57
2022-10-26T05:35:29.756Z,1008.61
2022-10-26T05:36:29.739Z,1008.60
2022-10-26T05:37:29.706Z,1008.61
2022-10-26T05:38:29.694Z,1008.64
2022-10-26T05:39:29.665Z,1008.60
2022-10-26T05:40:29.635Z,1008.62
2022-10-26T05:41:29.618Z,1008.61
2022-10-26T05:42:29.591Z,1008.63
2022-10-26T05:43:29.564Z,1008.66
2022-10-26T05:44:29.545Z,1008.62
2022-10-26T05:45:29.536Z,1008.69
2022-10-26T05:46:29.494Z,1008.67
2022-10-26T05:47:29.468Z,1008.70
2022-10-26T05:48:29.454Z,1008.68
2022-10-26T05:49:29.421Z,1008.66
2022-10-26T05:50:29.400Z,1008.67
2022-10-26T05:51:29.381Z,1008.67
2022-10-26T05:52:29.359Z,1008.69
2022-10-26T05:53:29.348Z,1008.72
2022-10-26T05:54:29.316Z,1008.72
2022-10-26T05:55:29.287Z,1008.76
2022-10-26T05:56:29.268Z,1008.76
2022-10-26T05:57:29.243Z,1008.75
2022-10-26T05:58:29.215Z,1008.79
2022-10-26T05:59:29.192Z,1008.75
2022-10-26T06:00:29.273Z,1008.76
2022-10-26T06:01:29.301Z,1008.77
2022-10-26T06:02:29.311Z,1008.77
2022-10-26T06:03:32.117Z,1008.77
2022-10-26T06:04:29.075Z,1008.78
2022-10-26T06:05:29.051Z,1008.80
2022-10-26T06:06:29.031Z,1008.78
2022-10-26T06:07:29.005Z,1008.84
2022-10-26T06:08:28.983Z,1008.85
2022-10-26T06:09:28.964Z,1008.83
2022-10-26T06:10:29.045Z,1008.83
2022-10-26T06:11:28.920Z,1008.82
2022-10-26T06:12:28.894Z,1008.87
2022-10-26T06:13:28.865Z,1008.86
2022-10-26T06:14:28.840Z,1008.89
2022-10-26T06:15:28.815Z,1008.86
2022-10-26T06:16:28.792Z,1008.89
2022-10-26T06:17:28.789Z,1008.91
2022-10-26T06:18:28.754Z,1008.90
2022-10-26T06:19:28.728Z,1008.92
2022-10-26T06:20:28.698Z,1008.88
2022-10-26T06:21:28.678Z,1008.90
2022-10-26T06:22:28.658Z,1008.90
2022-10-26T06:23:28.626Z,1008.89
2022-10-26T06:24:28.608Z,1008.86
2022-10-26T06:25:28.583Z,1008.90
2022-10-26T06:26:28.556Z,1008.90
2022-10-26T06:27:28.537Z,1008.85
2022-10-26T06:28:28.578Z,1008.88
2022-10-26T06:29:28.485Z,1008.87
2022-10-26T06:30:28.463Z,1008.85
2022-10-26T06:31:28.435Z,1008.87
2022-10-26T06:32:28.420Z,1008.86
2022-10-26T06:33:29.899Z,1008.85
2022-10-26T06:34:28.369Z,1008.84
2022-10-26T06:35:28.342Z,1008.82
2022-10-26T06:36:28.319Z,1008.85
2022-10-26T06:37:28.297Z,1008.83
2022-10-26T06:38:28.281Z,1008.84
2022-10-26T06:39:28.250Z,1008.82
2022-10-26T06:40:28.226Z,1008.82
2022-10-26T06:41:28.202Z,1008.82
2022-10-26T06:42:28.181Z,1008.82
2022-10-26T06:43:28.161Z,1008.79
2022-10-26T06:44:28.132Z,1008.83
2022-10-26T06:45:28.113Z,1008.80
2022-10-26T06:46:28.091Z,1008.82
2022-10-26T06:47:28.060Z,1008.79
2022-10-26T06:48:28.044Z,1008.79
2022-10-26T06:49:28.043Z,1008.81
2022-10-26T06:50:27.998Z,1008.81
2022-10-26T06:51:27.971Z,1008.83
2022-10-26T06:52:27.948Z,1008.86
2022-10-26T06:53:27.977Z,1008.82
2022-10-26T06:54:27.900Z,1008.87
2022-10-26T06:55:27.874Z,1008.85
2022-10-26T06:56:27.854Z,1008.86
2022-10-26T06:57:27.827Z,1008.88
2022-10-26T06:58:27.813Z,1008.88
2022-10-26T06:59:27.787Z,1008.87
2022-10-26T07:00:27.898Z,1008.88
2022-10-26T07:01:27.841Z,1008.88
2022-10-26T07:02:27.843Z,1008.89
2022-10-26T07:03:27.687Z,1008.90
2022-10-26T07:04:27.667Z,1008.90
2022-10-26T07:05:27.689Z,1008.93
2022-10-26T07:06:27.628Z,1008.91
2022-10-26T07:07:27.596Z,1008.94
2022-10-26T07:08:27.571Z,1008.96
2022-10-26T07:09:27.549Z,1009.01
2022-10-26T07:10:27.529Z,1008.99
2022-10-26T07:11:27.502Z,1009.00
2022-10-26T07:12:30.845Z,1009.03
2022-10-26T07:13:27.455Z,1009.04
2022-10-26T07:14:27.433Z,1009.03
2022-10-26T07:15:27.409Z,1009.06
2022-10-26T07:16:27.389Z,1009.03
2022-10-26T07:17:27.358Z,1009.02
2022-10-26T07:18:27.344Z,1009.03
2022-10-26T07:19:27.314Z,1009.04
2022-10-26T07:20:27.293Z,1009.01
2022-10-26T07:21:27.288Z,1008.97
2022-10-26T07:22:27.249Z,1009.00
2022-10-26T07:23:27.292Z,1008.97
2022-10-26T07:24:27.201Z,1008.98
2022-10-26T07:25:27.177Z,1009.00
2022-10-26T07:26:27.153Z,1008.99
2022-10-26T07:27:27.133Z,1009.00
2022-10-26T07:28:27.107Z,1009.00
2022-10-26T07:29:27.083Z,1009.00
2022-10-26T07:30:27.059Z,1009.00
2022-10-26T07:31:27.038Z,1009.04
2022-10-26T07:32:27.011Z,1009.00
2022-10-26T07:33:26.990Z,1009.00
2022-10-26T07:34:26.969Z,1009.03
2022-10-26T07:35:26.944Z,1009.02
2022-10-26T07:36:26.919Z,1009.01
2022-10-26T07:37:26.928Z,1009.04
2022-10-26T07:38:26.877Z,1009.03
2022-10-26T07:39:26.855Z,1009.03
2022-10-26T07:40:26.836Z,1009.05
2022-10-26T07:41:26.805Z,1009.03
2022-10-26T07:42:26.787Z,1009.02
2022-10-26T07:43:26.760Z,1009.04
2022-10-26T07:44:26.738Z,1009.08
2022-10-26T07:45:26.714Z,1009.08
2022-10-26T07:46:26.694Z,1009.10
2022-10-26T07:47:26.668Z,1009.11
2022-10-26T07:48:26.645Z,1009.18
2022-10-26T07:49:27.920Z,1009.13
2022-10-26T07:50:26.601Z,1009.17
2022-10-26T07:51:26.574Z,1009.15
2022-10-26T07:52:26.564Z,1009.15
2022-10-26T07:53:27.991Z,1009.12
2022-10-26T07:54:26.505Z,1009.14
2022-10-26T07:55:26.483Z,1009.12
2022-10-26T07:56:26.455Z,1009.13
2022-10-26T07:57:26.433Z,1009.09
2022-10-26T07:58:26.413Z,1009.14
2022-10-26T07:59:26.388Z,1009.12
2022-10-26T08:00:26.459Z,1009.16
2022-10-26T08:01:26.508Z,1009.13
2022-10-26T08:02:26.324Z,1009.15
2022-10-26T08:03:26.293Z,1009.12
2022-10-26T08:04:26.277Z,1009.09
2022-10-26T08:05:26.326Z,1009.10
2022-10-26T08:06:26.228Z,1009.12
2022-10-26T08:07:26.208Z,1009.13
2022-10-26T08:08:26.181Z,1009.12
2022-10-26T08:09:26.181Z,1009.14
2022-10-26T08:10:26.136Z,1009.13
2022-10-26T08:11:26.115Z,1009.17
2022-10-26T08:12:26.086Z,1009.18
2022-10-26T08:13:26.067Z,1009.16
2022-10-26T08:14:26.044Z,1009.17
2022-10-26T08:15:26.017Z,1009.16
2022-10-26T08:16:26.001Z,1009.19
2022-10-26T08:17:25.974Z,1009.19
2022-10-26T08:18:25.955Z,1009.15
2022-10-26T08:19:25.930Z,1009.17
2022-10-26T08:20:25.906Z,1009.14
2022-10-26T08:21:36.477Z,1009.12
2022-10-26T08:22:25.859Z,1009.11
2022-10-26T08:23:25.832Z,1009.10
2022-10-26T08:24:25.811Z,1009.04
2022-10-26T08:25:25.814Z,1009.01
2022-10-26T08:26:25.772Z,1009.04
2022-10-26T08:27:25.744Z,1009.04
2022-10-26T08:28:25.721Z,1009.02
2022-10-26T08:29:25.706Z,1009.07
2022-10-26T08:30:25.766Z,1009.04
2022-10-26T08:31:25.653Z,1009.05
2022-10-26T08:32:25.638Z,1009.08
2022-10-26T08:33:25.607Z,1009.05
2022-10-26T08:34:25.585Z,1009.04
2022-10-26T08:35:25.556Z,1009.04
2022-10-26T08:36:25.538Z,1009.05
2022-10-26T08:37:25.514Z,1009.03
2022-10-26T08:38:25.493Z,1009.05
2022-10-26T08:39:25.467Z,1009.02
2022-10-26T08:40:25.445Z,1009.02
2022-10-26T08:41:25.446Z,1009.02
2022-10-26T08:42:25.409Z,1009.02
2022-10-26T08:43:25.387Z,1009.01
2022-10-26T08:44:25.355Z,1009.03
2022-10-26T08:45:30.576Z,1009.00
2022-10-26T08:46:25.308Z,1008.98
2022-10-26T08:47:25.288Z,1008.96
2022-10-26T08:48:25.262Z,1008.95
2022-10-26T08:49:25.244Z,1008.95
2022-10-26T08:50:25.222Z,1008.94
2022-10-26T08:51:25.195Z,1008.97
2022-10-26T08:52:25.175Z,1008.98
2022-10-26T08:53:25.151Z,1008.97
2022-10-26T08:54:25.123Z,1008.98
2022-10-26T08:55:25.107Z,1008.99
2022-10-26T08:56:25.080Z,1008.95
2022-10-26T08:57:25.093Z,1008.95
2022-10-26T08:58:25.040Z,1008.95
2022-10-26T08:59:25.009Z,1008.89
2022-10-26T09:00:25.009Z,1008.85
2022-10-26T09:01:25.155Z,1008.86
2022-10-26T09:02:24.947Z,1008.84
2022-10-26T09:03:24.921Z,1008.86
2022-10-26T09:04:24.896Z,1008.84
2022-10-26T09:05:24.875Z,1008.82
2022-10-26T09:06:24.854Z,1008.81
2022-10-26T09:07:24.844Z,1008.80
2022-10-26T09:08:24.809Z,1008.84
2022-10-26T09:09:24.790Z,1008.86
2022-10-26T09:10:24.906Z,1008.84
2022-10-26T09:11:24.740Z,1008.89
2022-10-26T09:12:24.718Z,1008.92
2022-10-26T09:13:24.728Z,1008.92
2022-10-26T09:14:24.673Z,1008.91
2022-10-26T09:15:24.655Z,1008.91
2022-10-26T09:16:24.626Z,1008.94
2022-10-26T09:17:24.604Z,1008.98
2022-10-26T09:18:24.585Z,1008.99
2022-10-26T09:19:24.593Z,1009.06
2022-10-26T09:20:24.536Z,1009.09
2022-10-26T09:21:24.515Z,1009.12
2022-10-26T09:22:24.499Z,1009.18
2022-10-26T09:23:24.468Z,1009.22
2022-10-26T09:24:24.446Z,1009.24
2022-10-26T09:25:24.431Z,1009.32
2022-10-26T09:26:24.401Z,1009.37
2022-10-26T09:27:24.375Z,1009.36
2022-10-26T09:28:24.353Z,1009.40
2022-10-26T09:29:24.352Z,1009.40
2022-10-26T09:30:24.313Z,1009.40
2022-10-26T09:31:24.291Z,1009.41
2022-10-26T09:32:24.270Z,1009.42
2022-10-26T09:33:24.243Z,1009.39
2022-10-26T09:34:24.229Z,1009.39
2022-10-26T09:35:24.253Z,1009.40
2022-10-26T09:36:24.175Z,1009.39
2022-10-26T09:37:24.158Z,1009.42
2022-10-26T09:38:24.129Z,1009.39
2022-10-26T09:39:24.108Z,1009.43
2022-10-26T09:40:24.088Z,1009.40
2022-10-26T09:41:25.231Z,1009.41
2022-10-26T09:42:24.046Z,1009.43
2022-10-26T09:43:24.016Z,1009.45
2022-10-26T09:44:23.993Z,1009.43
2022-10-26T09:45:24.001Z,1009.46
2022-10-26T09:46:23.958Z,1009.48
2022-10-26T09:47:23.932Z,1009.49
2022-10-26T09:48:23.910Z,1009.52
2022-10-26T09:49:23.894Z,1009.50
2022-10-26T09:50:23.862Z,1009.52
2022-10-26T09:51:23.839Z,1009.52
2022-10-26T09:52:23.813Z,1009.52
2022-10-26T09:53:23.795Z,1009.51
2022-10-26T09:54:23.774Z,1009.53
2022-10-26T09:55:23.754Z,1009.56
2022-10-26T09:56:23.730Z,1009.58
2022-10-26T09:57:23.705Z,1009.60
2022-10-26T09:58:23.683Z,1009.62
2022-10-26T09:59:23.673Z,1009.65
2022-10-26T10:00:23.707Z,1009.63
2022-10-26T10:01:23.764Z,1009.66
2022-10-26T10:02:23.603Z,1009.66
2022-10-26T10:03:23.642Z,1009.64
2022-10-26T10:04:23.550Z,1009.65
2022-10-26T10:05:45.728Z,1009.63
2022-10-26T10:06:23.507Z,1009.70
2022-10-26T10:07:23.498Z,1009.71
2022-10-26T10:08:23.463Z,1009.78
2022-10-26T10:09:23.441Z,1009.80
2022-10-26T10:10:23.424Z,1009.86
2022-10-26T10:11:23.390Z,1009.88
2022-10-26T10:12:23.374Z,1009.87
2022-10-26T10:13:23.350Z,1009.88
2022-10-26T10:14:23.330Z,1009.89
2022-10-26T10:15:23.307Z,1009.92
2022-10-26T10:16:23.290Z,1009.89
2022-10-26T10:17:23.294Z,1009.89
2022-10-26T10:18:23.241Z,1009.92
2022-10-26T10:19:23.225Z,1009.91
2022-10-26T10:20:23.201Z,1009.95
2022-10-26T10:21:23.170Z,1009.98
2022-10-26T10:22:23.155Z,1009.97
2022-10-26T10:23:23.130Z,1009.95
2022-10-26T10:24:23.105Z,1009.92
2022-10-26T10:25:23.177Z,1009.91
2022-10-26T10:26:23.065Z,1009.95
2022-10-26T10:27:23.045Z,1009.94
2022-10-26T10:28:23.033Z,1009.98
2022-10-26T10:29:22.998Z,1010.03
2022-10-26T10:30:22.978Z,1010.02
2022-10-26T10:31:22.961Z,1010.04
2022-10-26T10:32:22.934Z,1010.01
2022-10-26T10:33:22.931Z,1010.06
2022-10-26T10:34:22.895Z,1010.07
2022-10-26T10:35:22.865Z,1010.05
2022-10-26T10:36:22.849Z,1010.04
2022-10-26T10:37:22.825Z,1010.03
2022-10-26T10:38:22.802Z,1010.01
2022-10-26T10:39:22.827Z,1010.01
2022-10-26T10:40:22.760Z,1010.04
2022-10-26T10:41:22.741Z,1010.05
2022-10-26T10:42:22.717Z,1010.06
2022-10-26T10:43:22.699Z,1010.03
2022-10-26T10:44:22.673Z,1009.99
2022-10-26T10:45:22.650Z,1009.99
2022-10-26T10:46:22.627Z,1010.02
2022-10-26T10:47:22.609Z,1010.04
2022-10-26T10:48:22.591Z,1010.08
2022-10-26T10:49:22.587Z,1010.04
2022-10-26T10:50:22.543Z,1010.05
2022-10-26T10:51:22.528Z,1010.09
2022-10-26T10:52:22.513Z,1010.08
2022-10-26T10:53:22.481Z,1010.11
2022-10-26T10:54:22.458Z,1010.06
2022-10-26T10:55:22.433Z,1010.05
2022-10-26T10:56:22.415Z,1010.07
2022-10-26T10:57:22.394Z,1010.05
2022-10-26T10:58:22.370Z,1010.07
2022-10-26T10:59:22.353Z,1010.02
2022-10-26T11:00:22.329Z,1010.07
2022-10-26T11:01:22.393Z,1010.07
2022-10-26T11:02:22.422Z,1010.10
2022-10-26T11:03:25.042Z,1010.06
2022-10-26T11:04:22.246Z,1010.07
2022-10-26T11:05:24.898Z,1010.02
2022-10-26T11:06:22.202Z,1010.07
2022-10-26T11:07:22.186Z,1010.06
2022-10-26T11:08:22.158Z,1010.11
2022-10-26T11:09:22.149Z,1010.06
2022-10-26T11:10:22.118Z,1010.08
2022-10-26T11:11:22.091Z,1010.08
2022-10-26T11:12:22.154Z,1010.14
2022-10-26T11:13:22.058Z,1010.12
2022-10-26T11:14:22.035Z,1010.13
2022-10-26T11:15:22.011Z,1010.11
2022-10-26T11:16:21.989Z,1010.18
2022-10-26T11:17:21.974Z,1010.10
2022-10-26T11:18:21.946Z,1010.17
2022-10-26T11:19:21.928Z,1010.17
2022-10-26T11:20:21.904Z,1010.15
2022-10-26T11:21:21.906Z,1010.14
2022-10-26T11:22:21.862Z,1010.12
2022-10-26T11:23:21.844Z,1010.14
2022-10-26T11:24:21.819Z,1010.17
2022-10-26T11:25:21.796Z,1010.10
2022-10-26T11:26:21.782Z,1010.10
2022-10-26T11:27:21.762Z,1010.03
2022-10-26T11:28:21.731Z,1010.02
2022-10-26T11:29:21.722Z,1010.02
2022-10-26T11:30:21.693Z,1010.00
2022-10-26T11:31:21.680Z,1010.02
2022-10-26T11:32:21.651Z,1010.03
2022-10-26T11:33:21.636Z,1010.02
2022-10-26T11:34:21.614Z,1010.01
2022-10-26T11:35:21.591Z,1010.00
2022-10-26T11:36:22.107Z,1010.03
2022-10-26T11:37:21.565Z,1010.04
2022-10-26T11:38:28.208Z,1010.06
2022-10-26T11:39:21.503Z,1010.05
2022-10-26T11:40:21.484Z,1010.09
2022-10-26T11:41:21.467Z,1010.07
2022-10-26T11:42:21.440Z,1010.07
2022-10-26T11:43:21.416Z,1010.09
2022-10-26T11:44:21.397Z,1010.03
2022-10-26T11:45:21.380Z,1010.01
2022-10-26T11:46:21.358Z,1010.02
2022-10-26T11:47:21.333Z,1010.00
2022-10-26T11:48:21.312Z,1009.98
2022-10-26T11:49:21.290Z,1009.99
2022-10-26T11:50:21.271Z,1010.02
2022-10-26T11:51:21.253Z,1010.04
2022-10-26T11:52:21.229Z,1010.08
2022-10-26T11:53:21.234Z,1010.06
2022-10-26T11:55:21.173Z,1010.09
2022-10-26T11:56:21.150Z,1010.12
2022-10-26T11:57:21.134Z,1010.09
2022-10-26T11:58:21.107Z,1010.14
2022-10-26T11:59:21.086Z,1010.18
2022-10-26T12:00:21.064Z,1010.22
2022-10-26T12:01:21.096Z,1010.22
2022-10-26T12:02:21.027Z,1010.20
2022-10-26T12:03:21.003Z,1010.25
2022-10-26T12:04:20.984Z,1010.23
2022-10-26T12:05:20.959Z,1010.24
2022-10-26T12:06:20.940Z,1010.24
2022-10-26T12:07:20.922Z,1010.23